x

Port Orford - 15 Nm West Of Port Orford, Or (46015) Wave Buoy

9:50pm - Tue 3rd Mar 2015 All times are PST. -8 hours from GMT.

  • Sig Wave height 6.9ft
  • Swell Direction
  • Peak Period 9s
  • Average Period 5s
  • Wind
    27mph, 29mph gusts
  • Sea Temp 53°f
  • Air Temp 52°f
  • Sea Pressure 1020.6mb
  • Port Orford - 15 Nm West Of Port Orford, Or
  • Port Orford - 15 Nm West Of Port Orford, Or

More Historic Weather Station data

Upgrade to MSW Pro to gain access to the past 30 days of data for over 8000 Wavebouys and Weather Stations around the globe.

Join Pro

Comparision Forecast

View Surf forecast
   
Tue 03/03 9:50pm 7ft 9s 5s 27 29 mph 1020.6mb 53f 52f
8:50pm 7ft 9s 5s 25 29 mph 1020.4mb 53f 52f
7:50pm 6.5ft 8s 5s 25 27 mph 1020.5mb 53f 51f
6:50pm 6ft 9s 5s 25 29 mph 1020.2mb 53f 51f
5:50pm 6ft 9s 5s 22 29 mph 1020.1mb 53f 51f
4:50pm 5.5ft 9s 5s 22 27 mph 1020.4mb 53f 51f
3:50pm 6ft 8s 6s 25 27 mph 1020.6mb 53f 51f
2:50pm 6ft 9s 6s 20 25 mph 1020.8mb 53f 51f
1:50pm 5.5ft 9s 6s 20 25 mph 1021mb 53f 51f
12:50pm 6ft 9s 6s 20 22 mph 1021.6mb 53f 51f
11:50am 6ft 9s 6s 16 20 mph 1022.2mb 53f 51f
10:50am 6.5ft 9s 6s 16 18 mph 1022.2mb 53f 50f
9:50am 7ft 9s 6s 16 18 mph 1022.1mb 53f 50f
8:50am 6.5ft 9s 6s 16 18 mph 1021.9mb 53f 50f
7:50am 7ft 8s 6s 16 18 mph 1021.6mb 53f 49f
6:50am 7ft 8s 6s 16 20 mph 1021.1mb 53f 49f
5:50am 8ft 8s 6s 18 22 mph 1021mb 53f 50f
4:50am 7.5ft 10s 6s 18 20 mph 1020.6mb 53f 51f
3:50am 8ft 9s 6s 18 22 mph 1020.3mb 53f 51f
2:50am 8ft 10s 6s 16 18 mph 1020.5mb 53f 50f
1:50am 8ft 9s 6s 16 18 mph 1020.4mb 53f 50f
12:50am 8.5ft 9s 6s 22 27 mph 1019.6mb 54f 52f
Mon 03/02 11:50pm 8ft 7s 6s 18 20 mph 1019.6mb 54f 51f
10:50pm 8.5ft 9s 6s 25 29 mph 1019.3mb 54f 52f
9:50pm 8ft 9s 6s 25 29 mph 1018.7mb 54f 52f
8:50pm 8.5ft 9s 6s 25 29 mph 1018mb 54f 51f
7:50pm 8ft 9s 6s 20 27 mph 1017.6mb 54f 51f
6:50pm 8ft 9s 6s 22 27 mph 1016.7mb 54f 51f
5:50pm 8ft 9s 6s 20 25 mph 1016.3mb 53f 51f
4:50pm 7.5ft 9s 6s 18 22 mph 1016.1mb 53f 50f
3:50pm 8ft 9s 6s 18 22 mph 1015.6mb 54f 50f
2:50pm 7.5ft 9s 6s 16 18 mph 1015.3mb 54f 50f
1:50pm 7.5ft 9s 6s 16 18 mph 1015.1mb 54f 50f
12:50pm 7ft 8s 6s 18 22 mph 1015mb 54f 50f
11:50am 8ft 8s 7s 16 22 mph 1014.7mb 54f 48f
10:50am 7ft 8s 6s 13 18 mph 1014.4mb 54f 49f
9:50am 8ft 8s 7s 16 18 mph 1014.2mb 54f 49f
8:50am 6ft 8s 6s 13 16 mph 1013.8mb 53f 49f
7:50am 7ft 8s 6s 11 13 mph 1013.5mb 53f 49f
6:50am 7ft 8s 6s 11 16 mph 1013.3mb 53f 49f
5:50am 7ft 8s 6s 13 16 mph 1013.3mb 53f 48f
4:50am 6.5ft 7s 5s 18 22 mph 1013.2mb 53f 50f
3:50am 7ft 8s 6s 22 29 mph 1013.3mb 53f 51f
2:50am 6.5ft 7s 5s 20 25 mph 1014.1mb 53f 51f
1:50am 7ft 8s 5s 20 25 mph 1015.1mb 53f 49f
12:50am 6.5ft 6s 5s 22 27 mph 1015.6mb 53f 51f
Sun 03/01 11:50pm 6ft 6s 5s 25 29 mph 1015.9mb 54f 50f
10:50pm 6ft 8s 5s 20 22 mph 1016mb 54f 51f
9:50pm 6.5ft 6s 5s 20 25 mph 1016.5mb 54f 52f
8:50pm 7ft 6s 5s 25 29 mph 1017mb 54f 51f
7:50pm 7ft 6s 5s 25 31 mph 1017.5mb 54f 52f
6:50pm 7ft 6s 5s 29 34 mph 1017.9mb 54f 52f
5:50pm 7ft 9s 5s 27 31 mph 1017.3mb 54f 52f
4:50pm 6ft 8s 5s 27 31 mph 1017.6mb 54f 52f
3:50pm 6ft 9s 5s 29 31 mph 1018.2mb 54f 52f
2:50pm 6.5ft 8s 5s 29 34 mph 1018.2mb 54f 52f
1:50pm 6ft 9s 5s 25 29 mph 1018.7mb 54f 52f
12:50pm 6ft 9s 5s 22 27 mph 1019.4mb 54f 51f
11:50am 6ft 8s 5s 22 27 mph 1020.2mb 54f 50f
10:50am 7ft 9s 5s 25 29 mph 1020.3mb 54f 49f
9:50am 6ft 9s 5s 25 27 mph 1020.6mb 54f 49f
8:50am 7ft 10s 6s 25 31 mph 1020.4mb 54f 49f
7:50am 7.5ft 9s 6s 22 27 mph 1020.3mb 54f 49f
6:50am 7ft 10s 6s 22 27 mph 1019.7mb 54f 50f
5:50am 7ft 9s 6s 22 27 mph 1019.6mb 54f 49f
4:50am 7.5ft 10s 6s 22 27 mph 1020mb 54f 49f
3:50am 7.5ft 7s 6s 22 27 mph 1020.1mb 54f 50f
2:50am 8ft 10s 6s 22 27 mph 1020.4mb 54f 51f
1:50am 8.5ft 9s 6s 22 27 mph 1020.6mb 54f 52f
12:50am 9ft 10s 6s 25 27 mph 1020.1mb 54f 52f
Sat 02/28 11:50pm 9.5ft 10s 6s 27 31 mph 1019.9mb 54f 53f
10:50pm 9ft 10s 6s 25 29 mph 1019.8mb 54f 54f
9:50pm 10ft 11s 7s 25 31 mph 1019.2mb 54f 54f
8:50pm 10ft 11s 7s 22 27 mph 1018.9mb 54f 54f
7:50pm 10.5ft 10s 7s 22 27 mph 1018.3mb 54f 54f
6:50pm 10ft 10s 7s 25 29 mph 1017.8mb 54f 54f
5:50pm 11ft 11s 7s 27 31 mph 1016.9mb 54f 54f
4:50pm 12ft 11s 7s 31 38 mph 1016.1mb 54f 54f
3:50pm 12ft 11s 7s 29 34 mph 1016mb 54f 53f
2:50pm 11.5ft 11s 7s 31 38 mph 1015.4mb 54f 54f
1:50pm 11.5ft 10s 7s 27 34 mph 1015.3mb 54f 53f
12:50pm 11ft 10s 7s 27 31 mph 1015.2mb 54f 52f
11:50am 12ft 10s 7s 25 31 mph 1014.9mb 54f 51f
10:50am 12ft 10s 7s 27 31 mph 1014.2mb 54f 50f
9:50am 10ft 11s 7s 25 29 mph 1013.4mb 54f 50f
8:50am 10.5ft 10s 7s 22 27 mph 1012.6mb 54f 51f
7:50am 9.5ft 10s 7s 25 29 mph 1011.8mb 54f 51f